MOL Maneuver — V7VC5 — position and weather

sailwx.info

Track history (hours):
 
Tides and Currents Weather Stations Pressure Air Temp Water Temp Dewpoint Dewpoint Depression Visibility Wind Speed Wind Dir Waves Ship Positions

MOL Maneuver

Last reported at 2018-Aug-16 00:08 UTC. Time now 2018-Aug-16 08:44 UTC.
Position N 31°55' W 080°36'.

Length 302 m; draft 12.5 m.

Type: Cargo ship. MMSI: 538004086.

Date/timePositionNaut miles runAvg speedWind from/ knotsBaromVisibWave heightAir tempDewpointWater temp
2018-Aug-16 00:08N 31°55' W 080°36'212.0
2018-Aug-16 00:00N 31°56' W 080°38'611.3
2018-Aug-15 23:30N 31°58' W 080°44'713.1
2018-Aug-15 23:00N 32°02' W 080°50'611.3
2018-Aug-15 22:30N 32°04' W 080°57'5 9.5
2018-Aug-15 22:00N 32°05' W 081°02'3 6.4
2018-Aug-15 21:30N 32°05' W 081°06'3 5.3
2018-Aug-15 21:00N 32°07' W 081°08'0 0.1
2018-Aug-15 20:27N 32°07' W 081°08'0 0.0
2018-Aug-15 19:57N 32°07' W 081°08'0 0.0
2018-Aug-15 19:27N 32°07' W 081°08'0 0.0
2018-Aug-15 18:51N 32°07' W 081°08'0 0.0
2018-Aug-15 18:27N 32°07' W 081°08'0 0.0
2018-Aug-15 17:57N 32°07' W 081°08'0 0.0
2018-Aug-15 17:15N 32°07' W 081°08'0 0.0
2018-Aug-15 16:51N 32°07' W 081°08'0 0.0
2018-Aug-15 16:27N 32°07' W 081°08'0 0.0
2018-Aug-15 15:57N 32°07' W 081°08'0 0.0
2018-Aug-15 15:27N 32°07' W 081°08'0 0.0
2018-Aug-15 14:57N 32°07' W 081°08'0 0.0
2018-Aug-15 14:27N 32°07' W 081°08'0 0.0
2018-Aug-15 13:51N 32°07' W 081°08'0 0.0
2018-Aug-15 13:21N 32°07' W 081°08'0 0.0
2018-Aug-15 12:57N 32°07' W 081°08'0 0.0
2018-Aug-15 12:27N 32°07' W 081°08'0 0.0
2018-Aug-15 11:57N 32°07' W 081°08'0 0.0
2018-Aug-15 11:27N 32°07' W 081°08'0 0.0
2018-Aug-15 10:57N 32°07' W 081°08'0 0.0
2018-Aug-15 10:15N 32°07' W 081°08'0 0.0
2018-Aug-15 09:57N 32°07' W 081°08'0 0.0
2018-Aug-15 09:27N 32°07' W 081°08'0 0.0
2018-Aug-15 08:57N 32°07' W 081°08'0 0.0
2018-Aug-15 08:21N 32°07' W 081°08'0 0.0
2018-Aug-15 07:51N 32°07' W 081°08'0 0.0
2018-Aug-15 07:27N 32°07' W 081°08'0 0.0
2018-Aug-15 06:51N 32°07' W 081°08'0 0.0
2018-Aug-15 06:27N 32°07' W 081°08'0 0.0
2018-Aug-15 05:51N 32°07' W 081°08'0 0.0
2018-Aug-15 05:27N 32°07' W 081°08'0 0.0
2018-Aug-15 04:57N 32°07' W 081°08'0 0.0
2018-Aug-15 04:27N 32°07' W 081°08'0 0.0
2018-Aug-15 03:57N 32°07' W 081°08'0 0.0
2018-Aug-15 03:27N 32°07' W 081°08'0 0.0
2018-Aug-15 02:57N 32°07' W 081°08'0 0.0
2018-Aug-15 02:27N 32°07' W 081°08'0 0.0
2018-Aug-15 01:51N 32°07' W 081°08'0 0.0
2018-Aug-15 01:27N 32°07' W 081°08'0 0.0
2018-Aug-15 00:57N 32°07' W 081°08'0 0.0
2018-Aug-15 00:27N 32°07' W 081°08'0 0.0
2018-Aug-14 23:57N 32°07' W 081°08'0 0.0
2018-Aug-14 23:27N 32°07' W 081°08'0 0.0
2018-Aug-14 22:57N 32°07' W 081°08'0 0.0
2018-Aug-14 22:27N 32°07' W 081°08'0 0.0
2018-Aug-14 21:57N 32°07' W 081°08'0 0.0
2018-Aug-14 21:27N 32°07' W 081°08'0 0.0
2018-Aug-14 20:57N 32°07' W 081°08'0 0.0
2018-Aug-14 20:21N 32°07' W 081°08'0 0.0
2018-Aug-14 19:57N 32°07' W 081°08'0 0.0
2018-Aug-14 19:27N 32°07' W 081°08'0 0.0
2018-Aug-14 18:57N 32°07' W 081°08'0 0.0
2018-Aug-14 18:27N 32°07' W 081°08'0 0.0
2018-Aug-14 17:57N 32°07' W 081°08'0 0.2
2018-Aug-14 17:30N 32°08' W 081°08'0 0.3
2018-Aug-14 17:00N 32°08' W 081°08'2 3.8
2018-Aug-14 16:30N 32°06' W 081°07'2 4.7
2018-Aug-14 16:00N 32°05' W 081°05'3 5.6
2018-Aug-14 15:30N 32°05' W 081°01'4 9.1
2018-Aug-14 15:00N 32°03' W 080°57'4 8.6
2018-Aug-14 14:30N 32°02' W 080°52'611.4
2018-Aug-14 14:00N 31°59' W 080°46'510.4
2018-Aug-14 13:30N 31°57' W 080°40'510.7
2018-Aug-14 13:00N 31°55' W 080°34'3 5.4
2018-Aug-14 12:30N 31°53' W 080°33'1 1.5
2018-Aug-14 12:00N 31°53' W 080°32'3 5.7
2018-Aug-14 11:28N 31°50' W 080°30'511.2
2018-Aug-14 11:00N 31°46' W 080°27'610.8
2018-Aug-14 10:29N 31°42' W 080°22'610.7
2018-Aug-14 09:58N 31°38' W 080°17'510.6
2018-Aug-14 09:28N 31°34' W 080°13'510.9
2018-Aug-14 08:59N 31°31' W 080°08'611.1
2018-Aug-14 08:28N 31°27' W 080°04'  
2018-Aug-10 09:27N 09°34' W 079°48'818.0
2018-Aug-10 09:00N 09°27' W 079°52'5 1.6
2018-Aug-10 05:54N 09°22' W 079°53'0 0.0
2018-Aug-10 05:30N 09°22' W 079°53'0 0.0
2018-Aug-10 05:00N 09°22' W 079°53'0 0.0
2018-Aug-10 04:30N 09°22' W 079°53'0 0.0
2018-Aug-10 03:54N 09°22' W 079°53'0 0.0
2018-Aug-10 03:30N 09°22' W 079°53'0 0.0
2018-Aug-10 03:00N 09°22' W 079°53'0 0.0
2018-Aug-10 02:30N 09°22' W 079°53'0 0.0
2018-Aug-10 02:00N 09°22' W 079°53'0 0.0
2018-Aug-10 01:30N 09°22' W 079°53'0 0.0
2018-Aug-10 01:00N 09°22' W 079°53'0 0.0
2018-Aug-10 00:30N 09°22' W 079°53'0 0.0
2018-Aug-10 00:00N 09°22' W 079°53'0 0.0
2018-Aug-09 23:30N 09°22' W 079°53'0 0.0
2018-Aug-09 23:00N 09°22' W 079°53'0 0.0
2018-Aug-09 22:30N 09°22' W 079°53'0 0.0
2018-Aug-09 21:00N 09°22' W 079°53'0 0.0
2018-Aug-09 20:30N 09°22' W 079°53'0 0.0
2018-Aug-09 20:00N 09°22' W 079°53'0 0.4
2018-Aug-09 19:30N 09°22' W 079°53'2 3.1
2018-Aug-09 19:00N 09°23' W 079°54'2 3.3
2018-Aug-09 18:30N 09°22' W 079°55'4 7.8
2018-Aug-09 18:00N 09°19' W 079°55'2 4.0
2018-Aug-09 17:30N 09°17' W 079°55'0 0.3
2018-Aug-09 17:00N 09°16' W 079°55'0 0.4
2018-Aug-09 16:30N 09°16' W 079°55'0 0.5
2018-Aug-09 16:00N 09°16' W 079°55'0 0.7
2018-Aug-09 15:30N 09°16' W 079°55'1 2.0
2018-Aug-09 14:59N 09°15' W 079°55'2 3.4
2018-Aug-09 14:30N 09°13' W 079°55'3 5.7
2018-Aug-09 14:00N 09°11' W 079°53'  
Track history (hours):
 
Tides and Currents Weather Stations Pressure Air Temp Water Temp Dewpoint Dewpoint Depression Visibility Wind Speed Wind Dir Waves Ship Positions

MOL Maneuver

Last reported at 2018-Aug-16 00:08 UTC. Time now 2018-Aug-16 08:44 UTC.
Position N 31°55' W 080°36'.

Length 302 m; draft 12.5 m.

Type: Cargo ship. MMSI: 538004086.

Date/timePositionNaut miles runAvg speedWind from/ knotsBaromVisibWave heightAir tempDewpointWater temp
2018-Aug-16 00:08N 31°55' W 080°36'212.0
2018-Aug-16 00:00N 31°56' W 080°38'611.3
2018-Aug-15 23:30N 31°58' W 080°44'713.1
2018-Aug-15 23:00N 32°02' W 080°50'611.3
2018-Aug-15 22:30N 32°04' W 080°57'5 9.5
2018-Aug-15 22:00N 32°05' W 081°02'3 6.4
2018-Aug-15 21:30N 32°05' W 081°06'3 5.3
2018-Aug-15 21:00N 32°07' W 081°08'0 0.1
2018-Aug-15 20:27N 32°07' W 081°08'0 0.0
2018-Aug-15 19:57N 32°07' W 081°08'0 0.0
2018-Aug-15 19:27N 32°07' W 081°08'0 0.0
2018-Aug-15 18:51N 32°07' W 081°08'0 0.0
2018-Aug-15 18:27N 32°07' W 081°08'0 0.0
2018-Aug-15 17:57N 32°07' W 081°08'0 0.0
2018-Aug-15 17:15N 32°07' W 081°08'0 0.0
2018-Aug-15 16:51N 32°07' W 081°08'0 0.0
2018-Aug-15 16:27N 32°07' W 081°08'0 0.0
2018-Aug-15 15:57N 32°07' W 081°08'0 0.0
2018-Aug-15 15:27N 32°07' W 081°08'0 0.0
2018-Aug-15 14:57N 32°07' W 081°08'0 0.0
2018-Aug-15 14:27N 32°07' W 081°08'0 0.0
2018-Aug-15 13:51N 32°07' W 081°08'0 0.0
2018-Aug-15 13:21N 32°07' W 081°08'0 0.0
2018-Aug-15 12:57N 32°07' W 081°08'0 0.0
2018-Aug-15 12:27N 32°07' W 081°08'0 0.0
2018-Aug-15 11:57N 32°07' W 081°08'0 0.0
2018-Aug-15 11:27N 32°07' W 081°08'0 0.0
2018-Aug-15 10:57N 32°07' W 081°08'0 0.0
2018-Aug-15 10:15N 32°07' W 081°08'0 0.0
2018-Aug-15 09:57N 32°07' W 081°08'0 0.0
2018-Aug-15 09:27N 32°07' W 081°08'0 0.0
2018-Aug-15 08:57N 32°07' W 081°08'0 0.0
2018-Aug-15 08:21N 32°07' W 081°08'0 0.0
2018-Aug-15 07:51N 32°07' W 081°08'0 0.0
2018-Aug-15 07:27N 32°07' W 081°08'0 0.0
2018-Aug-15 06:51N 32°07' W 081°08'0 0.0
2018-Aug-15 06:27N 32°07' W 081°08'0 0.0
2018-Aug-15 05:51N 32°07' W 081°08'0 0.0
2018-Aug-15 05:27N 32°07' W 081°08'0 0.0
2018-Aug-15 04:57N 32°07' W 081°08'0 0.0
2018-Aug-15 04:27N 32°07' W 081°08'0 0.0
2018-Aug-15 03:57N 32°07' W 081°08'0 0.0
2018-Aug-15 03:27N 32°07' W 081°08'0 0.0
2018-Aug-15 02:57N 32°07' W 081°08'0 0.0
2018-Aug-15 02:27N 32°07' W 081°08'0 0.0
2018-Aug-15 01:51N 32°07' W 081°08'0 0.0
2018-Aug-15 01:27N 32°07' W 081°08'0 0.0
2018-Aug-15 00:57N 32°07' W 081°08'0 0.0
2018-Aug-15 00:27N 32°07' W 081°08'0 0.0
2018-Aug-14 23:57N 32°07' W 081°08'0 0.0
2018-Aug-14 23:27N 32°07' W 081°08'0 0.0
2018-Aug-14 22:57N 32°07' W 081°08'0 0.0
2018-Aug-14 22:27N 32°07' W 081°08'0 0.0
2018-Aug-14 21:57N 32°07' W 081°08'0 0.0
2018-Aug-14 21:27N 32°07' W 081°08'0 0.0
2018-Aug-14 20:57N 32°07' W 081°08'0 0.0
2018-Aug-14 20:21N 32°07' W 081°08'0 0.0
2018-Aug-14 19:57N 32°07' W 081°08'0 0.0
2018-Aug-14 19:27N 32°07' W 081°08'0 0.0
2018-Aug-14 18:57N 32°07' W 081°08'0 0.0
2018-Aug-14 18:27N 32°07' W 081°08'0 0.0
2018-Aug-14 17:57N 32°07' W 081°08'0 0.2
2018-Aug-14 17:30N 32°08' W 081°08'0 0.3
2018-Aug-14 17:00N 32°08' W 081°08'2 3.8
2018-Aug-14 16:30N 32°06' W 081°07'2 4.7
2018-Aug-14 16:00N 32°05' W 081°05'3 5.6
2018-Aug-14 15:30N 32°05' W 081°01'4 9.1
2018-Aug-14 15:00N 32°03' W 080°57'4 8.6
2018-Aug-14 14:30N 32°02' W 080°52'611.4
2018-Aug-14 14:00N 31°59' W 080°46'510.4
2018-Aug-14 13:30N 31°57' W 080°40'510.7
2018-Aug-14 13:00N 31°55' W 080°34'3 5.4
2018-Aug-14 12:30N 31°53' W 080°33'1 1.5
2018-Aug-14 12:00N 31°53' W 080°32'3 5.7
2018-Aug-14 11:28N 31°50' W 080°30'511.2
2018-Aug-14 11:00N 31°46' W 080°27'610.8
2018-Aug-14 10:29N 31°42' W 080°22'610.7
2018-Aug-14 09:58N 31°38' W 080°17'510.6
2018-Aug-14 09:28N 31°34' W 080°13'510.9
2018-Aug-14 08:59N 31°31' W 080°08'611.1
2018-Aug-14 08:28N 31°27' W 080°04'  
2018-Aug-10 09:27N 09°34' W 079°48'818.0
2018-Aug-10 09:00N 09°27' W 079°52'5 1.6
2018-Aug-10 05:54N 09°22' W 079°53'0 0.0
2018-Aug-10 05:30N 09°22' W 079°53'0 0.0
2018-Aug-10 05:00N 09°22' W 079°53'0 0.0
2018-Aug-10 04:30N 09°22' W 079°53'0 0.0
2018-Aug-10 03:54N 09°22' W 079°53'0 0.0
2018-Aug-10 03:30N 09°22' W 079°53'0 0.0
2018-Aug-10 03:00N 09°22' W 079°53'0 0.0
2018-Aug-10 02:30N 09°22' W 079°53'0 0.0
2018-Aug-10 02:00N 09°22' W 079°53'0 0.0
2018-Aug-10 01:30N 09°22' W 079°53'0 0.0
2018-Aug-10 01:00N 09°22' W 079°53'0 0.0
2018-Aug-10 00:30N 09°22' W 079°53'0 0.0
2018-Aug-10 00:00N 09°22' W 079°53'0 0.0
2018-Aug-09 23:30N 09°22' W 079°53'0 0.0
2018-Aug-09 23:00N 09°22' W 079°53'0 0.0
2018-Aug-09 22:30N 09°22' W 079°53'0 0.0
2018-Aug-09 21:00N 09°22' W 079°53'0 0.0
2018-Aug-09 20:30N 09°22' W 079°53'0 0.0
2018-Aug-09 20:00N 09°22' W 079°53'0 0.4
2018-Aug-09 19:30N 09°22' W 079°53'2 3.1
2018-Aug-09 19:00N 09°23' W 079°54'2 3.3
2018-Aug-09 18:30N 09°22' W 079°55'4 7.8
2018-Aug-09 18:00N 09°19' W 079°55'2 4.0
2018-Aug-09 17:30N 09°17' W 079°55'0 0.3
2018-Aug-09 17:00N 09°16' W 079°55'0 0.4
2018-Aug-09 16:30N 09°16' W 079°55'0 0.5
2018-Aug-09 16:00N 09°16' W 079°55'0 0.7
2018-Aug-09 15:30N 09°16' W 079°55'1 2.0
2018-Aug-09 14:59N 09°15' W 079°55'2 3.4
2018-Aug-09 14:30N 09°13' W 079°55'3 5.7
2018-Aug-09 14:00N 09°11' W 079°53'  

Dump ship's entire track history